Terminal Aerodrome Forecast
Issued by NWS

Home | Current Version | Previous Version | Graphics & Text | Print | Product List | Glossary On
Versions: 1 2 3 4 5 6 7 8 9 10 11 12 13 14 15 16 17 18 19 20 21 22 23 24 25 26 27 28 29 30
268
FTUS43 KGRB 172328
TAFRHI
TAF
KRHI 172328Z 1800/1824 36005KT P6SM OVC022
     FM180200 36004KT P6SM BKN018
     FM180700 03004KT P6SM OVC010
     FM181500 04009KT P6SM OVC012
     FM181900 02010KT P6SM BKN025=

USA.gov is the U.S. government's official web portal to all federal, state and local government web resources and services.